sensor_id;sensor_type;location;lat;lon;timestamp;temperature;humidity
8537;DHT22;4306;50.210;10.628;2024-03-23T00:53:55;6.50;98.00
8537;DHT22;4306;50.210;10.628;2024-03-23T00:56:23;6.50;98.40
8537;DHT22;4306;50.210;10.628;2024-03-23T00:58:49;6.20;98.40
8537;DHT22;4306;50.210;10.628;2024-03-23T01:01:16;6.10;99.10
8537;DHT22;4306;50.210;10.628;2024-03-23T01:03:42;6.00;99.70
8537;DHT22;4306;50.210;10.628;2024-03-23T01:06:09;6.10;98.70
8537;DHT22;4306;50.210;10.628;2024-03-23T01:08:37;6.20;98.20
8537;DHT22;4306;50.210;10.628;2024-03-23T01:11:04;6.20;98.20
8537;DHT22;4306;50.210;10.628;2024-03-23T01:13:30;6.30;98.10
8537;DHT22;4306;50.210;10.628;2024-03-23T01:15:57;6.20;98.10
8537;DHT22;4306;50.210;10.628;2024-03-23T01:18:24;6.20;97.90
8537;DHT22;4306;50.210;10.628;2024-03-23T01:20:52;6.20;97.70
8537;DHT22;4306;50.210;10.628;2024-03-23T01:23:18;6.20;97.60
8537;DHT22;4306;50.210;10.628;2024-03-23T01:25:53;6.10;97.70
8537;DHT22;4306;50.210;10.628;2024-03-23T01:28:19;6.00;97.90
8537;DHT22;4306;50.210;10.628;2024-03-23T01:30:46;6.00;98.20
8537;DHT22;4306;50.210;10.628;2024-03-23T01:33:12;5.90;98.20
8537;DHT22;4306;50.210;10.628;2024-03-23T01:35:39;5.90;98.10
8537;DHT22;4306;50.210;10.628;2024-03-23T01:38:05;5.80;98.30
8537;DHT22;4306;50.210;10.628;2024-03-23T01:40:32;5.80;98.00
8537;DHT22;4306;50.210;10.628;2024-03-23T01:43:05;5.90;98.10
8537;DHT22;4306;50.210;10.628;2024-03-23T01:45:34;5.90;97.90
8537;DHT22;4306;50.210;10.628;2024-03-23T01:48:01;5.90;98.00
8537;DHT22;4306;50.210;10.628;2024-03-23T01:50:28;5.90;98.00
8537;DHT22;4306;50.210;10.628;2024-03-23T01:52:58;5.90;97.90
8537;DHT22;4306;50.210;10.628;2024-03-23T01:55:26;5.90;98.10
8537;DHT22;4306;50.210;10.628;2024-03-23T01:57:53;5.80;98.50
8537;DHT22;4306;50.210;10.628;2024-03-23T02:00:21;5.80;98.30
8537;DHT22;4306;50.210;10.628;2024-03-23T02:02:48;5.80;98.30
8537;DHT22;4306;50.210;10.628;2024-03-23T02:05:15;5.50;99.40
8537;DHT22;4306;50.210;10.628;2024-03-23T02:07:42;5.40;99.90
8537;DHT22;4306;50.210;10.628;2024-03-23T02:10:10;5.30;99.90
8537;DHT22;4306;50.210;10.628;2024-03-23T02:12:38;5.50;99.90
8537;DHT22;4306;50.210;10.628;2024-03-23T02:15:06;5.50;99.90
8537;DHT22;4306;50.210;10.628;2024-03-23T02:17:35;5.50;99.90
8537;DHT22;4306;50.210;10.628;2024-03-23T02:20:03;5.60;99.90
8537;DHT22;4306;50.210;10.628;2024-03-23T02:22:36;5.60;99.90
8537;DHT22;4306;50.210;10.628;2024-03-23T02:25:05;5.60;99.90
8537;DHT22;4306;50.210;10.628;2024-03-23T02:27:31;5.70;99.90
8537;DHT22;4306;50.210;10.628;2024-03-23T02:30:00;5.70;99.90
8537;DHT22;4306;50.210;10.628;2024-03-23T02:32:26;5.70;99.80
8537;DHT22;4306;50.210;10.628;2024-03-23T02:34:53;5.60;99.70
8537;DHT22;4306;50.210;10.628;2024-03-23T02:37:19;5.70;99.50
8537;DHT22;4306;50.210;10.628;2024-03-23T02:39:46;5.70;99.90
8537;DHT22;4306;50.210;10.628;2024-03-23T02:42:13;5.50;99.90
8537;DHT22;4306;50.210;10.628;2024-03-23T02:44:42;5.50;99.90
8537;DHT22;4306;50.210;10.628;2024-03-23T02:47:08;5.50;99.90
8537;DHT22;4306;50.210;10.628;2024-03-23T02:49:35;5.60;99.80
8537;DHT22;4306;50.210;10.628;2024-03-23T02:52:01;5.60;99.90
8537;DHT22;4306;50.210;10.628;2024-03-23T02:54:28;5.50;99.80
8537;DHT22;4306;50.210;10.628;2024-03-23T02:56:54;5.40;99.90
8537;DHT22;4306;50.210;10.628;2024-03-23T02:59:22;5.30;99.90
8537;DHT22;4306;50.210;10.628;2024-03-23T03:01:48;5.40;99.90
8537;DHT22;4306;50.210;10.628;2024-03-23T03:04:15;5.30;99.90
8537;DHT22;4306;50.210;10.628;2024-03-23T03:06:41;5.20;99.90
8537;DHT22;4306;50.210;10.628;2024-03-23T03:09:08;5.30;99.90
8537;DHT22;4306;50.210;10.628;2024-03-23T03:11:35;5.50;99.90
8537;DHT22;4306;50.210;10.628;2024-03-23T03:14:02;5.50;99.90
8537;DHT22;4306;50.210;10.628;2024-03-23T03:16:29;5.50;99.90
8537;DHT22;4306;50.210;10.628;2024-03-23T03:18:56;5.60;99.90
8537;DHT22;4306;50.210;10.628;2024-03-23T03:21:22;5.70;99.90
8537;DHT22;4306;50.210;10.628;2024-03-23T03:23:49;5.70;99.90
8537;DHT22;4306;50.210;10.628;2024-03-23T03:26:16;5.80;99.90
8537;DHT22;4306;50.210;10.628;2024-03-23T03:28:43;5.80;99.90
8537;DHT22;4306;50.210;10.628;2024-03-23T03:31:09;5.90;99.90
8537;DHT22;4306;50.210;10.628;2024-03-23T03:33:38;5.90;99.90
8537;DHT22;4306;50.210;10.628;2024-03-23T03:36:04;6.00;99.90
8537;DHT22;4306;50.210;10.628;2024-03-23T03:38:31;6.00;99.90
8537;DHT22;4306;50.210;10.628;2024-03-23T03:40:57;5.90;99.90
8537;DHT22;4306;50.210;10.628;2024-03-23T03:43:24;5.90;99.90
8537;DHT22;4306;50.210;10.628;2024-03-23T03:45:54;6.00;99.90
8537;DHT22;4306;50.210;10.628;2024-03-23T03:48:21;6.00;99.90
8537;DHT22;4306;50.210;10.628;2024-03-23T03:50:49;6.10;99.90
8537;DHT22;4306;50.210;10.628;2024-03-23T03:53:16;6.10;99.90
8537;DHT22;4306;50.210;10.628;2024-03-23T03:55:42;6.10;99.90
8537;DHT22;4306;50.210;10.628;2024-03-23T03:58:09;6.20;99.90
8537;DHT22;4306;50.210;10.628;2024-03-23T04:00:35;6.30;99.90
8537;DHT22;4306;50.210;10.628;2024-03-23T04:03:03;6.30;99.90
8537;DHT22;4306;50.210;10.628;2024-03-23T04:05:29;6.40;99.90
8537;DHT22;4306;50.210;10.628;2024-03-23T04:07:57;6.50;99.90
8537;DHT22;4306;50.210;10.628;2024-03-23T04:10:24;6.50;99.90
8537;DHT22;4306;50.210;10.628;2024-03-23T04:12:52;6.50;99.90
8537;DHT22;4306;50.210;10.628;2024-03-23T04:15:19;6.50;99.90
8537;DHT22;4306;50.210;10.628;2024-03-23T04:17:46;6.50;99.90
8537;DHT22;4306;50.210;10.628;2024-03-23T04:20:13;6.60;99.90
8537;DHT22;4306;50.210;10.628;2024-03-23T04:22:42;6.70;99.90
8537;DHT22;4306;50.210;10.628;2024-03-23T04:25:09;6.60;99.90
8537;DHT22;4306;50.210;10.628;2024-03-23T04:27:37;6.70;99.90
8537;DHT22;4306;50.210;10.628;2024-03-23T04:30:04;6.60;99.90
8537;DHT22;4306;50.210;10.628;2024-03-23T04:32:35;6.70;99.90
8537;DHT22;4306;50.210;10.628;2024-03-23T04:35:01;6.80;99.90
8537;DHT22;4306;50.210;10.628;2024-03-23T04:37:31;7.00;99.90
8537;DHT22;4306;50.210;10.628;2024-03-23T04:39:59;7.10;99.90
8537;DHT22;4306;50.210;10.628;2024-03-23T04:42:27;7.20;99.90
8537;DHT22;4306;50.210;10.628;2024-03-23T04:44:55;7.30;99.90
8537;DHT22;4306;50.210;10.628;2024-03-23T04:47:22;7.60;99.90
8537;DHT22;4306;50.210;10.628;2024-03-23T04:49:49;7.70;99.90
8537;DHT22;4306;50.210;10.628;2024-03-23T04:52:16;7.80;99.90
8537;DHT22;4306;50.210;10.628;2024-03-23T04:54:43;8.00;99.90
8537;DHT22;4306;50.210;10.628;2024-03-23T04:57:11;8.10;99.90
8537;DHT22;4306;50.210;10.628;2024-03-23T04:59:38;8.30;99.90
8537;DHT22;4306;50.210;10.628;2024-03-23T05:02:05;8.40;99.90
8537;DHT22;4306;50.210;10.628;2024-03-23T05:04:31;8.50;99.90
8537;DHT22;4306;50.210;10.628;2024-03-23T05:06:58;8.60;99.90
8537;DHT22;4306;50.210;10.628;2024-03-23T05:09:25;8.60;99.90
8537;DHT22;4306;50.210;10.628;2024-03-23T05:11:55;8.70;99.90
8537;DHT22;4306;50.210;10.628;2024-03-23T05:14:23;8.70;99.90
8537;DHT22;4306;50.210;10.628;2024-03-23T05:16:50;8.80;99.90
8537;DHT22;4306;50.210;10.628;2024-03-23T05:19:17;8.90;99.90
8537;DHT22;4306;50.210;10.628;2024-03-23T05:21:43;8.90;99.90
8537;DHT22;4306;50.210;10.628;2024-03-23T05:24:10;8.90;99.90
8537;DHT22;4306;50.210;10.628;2024-03-23T05:26:37;8.90;99.90
8537;DHT22;4306;50.210;10.628;2024-03-23T05:29:04;8.90;99.90
8537;DHT22;4306;50.210;10.628;2024-03-23T05:31:32;9.00;99.90
8537;DHT22;4306;50.210;10.628;2024-03-23T05:34:00;9.00;99.90
8537;DHT22;4306;50.210;10.628;2024-03-23T05:36:26;9.00;99.90
8537;DHT22;4306;50.210;10.628;2024-03-23T05:38:53;9.00;99.90
8537;DHT22;4306;50.210;10.628;2024-03-23T05:41:19;9.10;99.90
8537;DHT22;4306;50.210;10.628;2024-03-23T05:43:48;9.10;99.90
8537;DHT22;4306;50.210;10.628;2024-03-23T05:46:14;9.10;99.90
8537;DHT22;4306;50.210;10.628;2024-03-23T05:48:41;9.10;99.90
8537;DHT22;4306;50.210;10.628;2024-03-23T05:51:08;9.10;99.90
8537;DHT22;4306;50.210;10.628;2024-03-23T05:53:35;9.10;99.90
8537;DHT22;4306;50.210;10.628;2024-03-23T05:56:02;9.10;99.90
8537;DHT22;4306;50.210;10.628;2024-03-23T05:58:31;9.20;99.90
8537;DHT22;4306;50.210;10.628;2024-03-23T06:00:57;9.20;99.90
8537;DHT22;4306;50.210;10.628;2024-03-23T06:03:25;9.20;99.90
8537;DHT22;4306;50.210;10.628;2024-03-23T06:05:52;9.10;99.90
8537;DHT22;4306;50.210;10.628;2024-03-23T06:08:20;9.20;99.90
8537;DHT22;4306;50.210;10.628;2024-03-23T06:10:47;9.20;99.90
8537;DHT22;4306;50.210;10.628;2024-03-23T06:13:14;9.30;99.90
8537;DHT22;4306;50.210;10.628;2024-03-23T06:15:40;9.30;99.90
8537;DHT22;4306;50.210;10.628;2024-03-23T06:18:07;9.40;99.90
8537;DHT22;4306;50.210;10.628;2024-03-23T06:20:33;9.40;99.90
8537;DHT22;4306;50.210;10.628;2024-03-23T06:23:01;9.40;99.90
8537;DHT22;4306;50.210;10.628;2024-03-23T06:25:29;9.50;99.90
8537;DHT22;4306;50.210;10.628;2024-03-23T06:27:56;9.40;99.90
8537;DHT22;4306;50.210;10.628;2024-03-23T06:30:24;9.40;99.90
8537;DHT22;4306;50.210;10.628;2024-03-23T06:32:50;9.50;99.90
8537;DHT22;4306;50.210;10.628;2024-03-23T06:35:18;9.50;99.90
8537;DHT22;4306;50.210;10.628;2024-03-23T06:37:44;9.50;99.90
8537;DHT22;4306;50.210;10.628;2024-03-23T06:40:12;9.50;99.90
8537;DHT22;4306;50.210;10.628;2024-03-23T06:42:39;9.50;99.90
8537;DHT22;4306;50.210;10.628;2024-03-23T06:45:07;9.50;99.90
8537;DHT22;4306;50.210;10.628;2024-03-23T06:47:33;9.40;99.90
8537;DHT22;4306;50.210;10.628;2024-03-23T06:50:01;9.50;99.90
8537;DHT22;4306;50.210;10.628;2024-03-23T06:52:28;9.50;99.90
8537;DHT22;4306;50.210;10.628;2024-03-23T06:54:55;9.50;99.90
8537;DHT22;4306;50.210;10.628;2024-03-23T06:57:22;9.50;99.90
8537;DHT22;4306;50.210;10.628;2024-03-23T06:59:50;9.40;99.90
8537;DHT22;4306;50.210;10.628;2024-03-23T07:02:16;9.30;99.90
8537;DHT22;4306;50.210;10.628;2024-03-23T07:04:44;9.20;99.90
8537;DHT22;4306;50.210;10.628;2024-03-23T07:07:10;9.10;99.90
8537;DHT22;4306;50.210;10.628;2024-03-23T07:09:37;9.20;99.90
8537;DHT22;4306;50.210;10.628;2024-03-23T07:12:03;9.10;99.90
8537;DHT22;4306;50.210;10.628;2024-03-23T07:14:31;9.10;99.90
8537;DHT22;4306;50.210;10.628;2024-03-23T07:16:58;9.20;99.90
8537;DHT22;4306;50.210;10.628;2024-03-23T07:19:25;8.90;99.90
8537;DHT22;4306;50.210;10.628;2024-03-23T07:21:52;8.90;99.90
8537;DHT22;4306;50.210;10.628;2024-03-23T07:24:19;9.00;99.90
8537;DHT22;4306;50.210;10.628;2024-03-23T07:26:46;8.80;99.90
8537;DHT22;4306;50.210;10.628;2024-03-23T07:29:13;8.90;99.90
8537;DHT22;4306;50.210;10.628;2024-03-23T07:31:42;8.90;99.90
8537;DHT22;4306;50.210;10.628;2024-03-23T07:34:11;8.80;99.90
8537;DHT22;4306;50.210;10.628;2024-03-23T07:36:37;8.80;99.90
8537;DHT22;4306;50.210;10.628;2024-03-23T07:39:04;8.80;99.90
8537;DHT22;4306;50.210;10.628;2024-03-23T07:41:30;8.60;99.90
8537;DHT22;4306;50.210;10.628;2024-03-23T07:43:57;8.70;99.90
8537;DHT22;4306;50.210;10.628;2024-03-23T07:46:24;8.70;99.90
8537;DHT22;4306;50.210;10.628;2024-03-23T07:48:51;8.60;99.90
8537;DHT22;4306;50.210;10.628;2024-03-23T07:51:21;8.50;99.90
8537;DHT22;4306;50.210;10.628;2024-03-23T07:53:49;8.30;99.90
8537;DHT22;4306;50.210;10.628;2024-03-23T07:56:16;8.10;99.90
8537;DHT22;4306;50.210;10.628;2024-03-23T07:58:44;7.80;99.90
8537;DHT22;4306;50.210;10.628;2024-03-23T08:01:11;7.50;99.90
8537;DHT22;4306;50.210;10.628;2024-03-23T08:03:41;7.30;99.90
8537;DHT22;4306;50.210;10.628;2024-03-23T08:06:12;7.10;99.90
8537;DHT22;4306;50.210;10.628;2024-03-23T08:08:43;6.90;99.90
8537;DHT22;4306;50.210;10.628;2024-03-23T08:11:11;6.70;99.90
8537;DHT22;4306;50.210;10.628;2024-03-23T08:13:39;6.60;99.90
8537;DHT22;4306;50.210;10.628;2024-03-23T08:16:06;6.70;99.90
8537;DHT22;4306;50.210;10.628;2024-03-23T08:18:34;6.70;99.90
8537;DHT22;4306;50.210;10.628;2024-03-23T08:21:01;6.60;99.90
8537;DHT22;4306;50.210;10.628;2024-03-23T08:23:31;6.70;99.90
8537;DHT22;4306;50.210;10.628;2024-03-23T08:26:01;6.80;99.90
8537;DHT22;4306;50.210;10.628;2024-03-23T08:28:30;6.60;99.90
8537;DHT22;4306;50.210;10.628;2024-03-23T08:30:56;6.70;99.90
8537;DHT22;4306;50.210;10.628;2024-03-23T08:33:23;6.60;99.90
8537;DHT22;4306;50.210;10.628;2024-03-23T08:35:54;6.50;99.90
8537;DHT22;4306;50.210;10.628;2024-03-23T08:38:21;6.50;99.90
8537;DHT22;4306;50.210;10.628;2024-03-23T08:40:48;6.50;99.90
8537;DHT22;4306;50.210;10.628;2024-03-23T08:43:21;6.50;99.90
8537;DHT22;4306;50.210;10.628;2024-03-23T08:45:47;6.60;99.90
8537;DHT22;4306;50.210;10.628;2024-03-23T08:48:15;6.50;99.40
8537;DHT22;4306;50.210;10.628;2024-03-23T08:50:41;6.50;99.50
8537;DHT22;4306;50.210;10.628;2024-03-23T08:53:08;6.60;99.60
8537;DHT22;4306;50.210;10.628;2024-03-23T08:55:34;6.70;99.80
8537;DHT22;4306;50.210;10.628;2024-03-23T08:58:02;6.70;99.00
8537;DHT22;4306;50.210;10.628;2024-03-23T09:00:30;6.60;98.30
8537;DHT22;4306;50.210;10.628;2024-03-23T09:02:57;6.70;98.70
8537;DHT22;4306;50.210;10.628;2024-03-23T09:05:24;6.70;98.80
8537;DHT22;4306;50.210;10.628;2024-03-23T09:07:51;6.80;98.30
8537;DHT22;4306;50.210;10.628;2024-03-23T09:10:17;6.80;98.10
8537;DHT22;4306;50.210;10.628;2024-03-23T09:12:45;6.90;97.90
8537;DHT22;4306;50.210;10.628;2024-03-23T09:15:11;6.80;97.80
8537;DHT22;4306;50.210;10.628;2024-03-23T09:17:40;6.70;98.10
8537;DHT22;4306;50.210;10.628;2024-03-23T09:20:07;6.70;98.10
8537;DHT22;4306;50.210;10.628;2024-03-23T09:22:34;6.60;98.30
8537;DHT22;4306;50.210;10.628;2024-03-23T09:25:00;6.80;98.20
8537;DHT22;4306;50.210;10.628;2024-03-23T09:27:28;6.70;98.30
8537;DHT22;4306;50.210;10.628;2024-03-23T09:29:54;6.70;98.50
8537;DHT22;4306;50.210;10.628;2024-03-23T09:32:21;6.90;98.30
8537;DHT22;4306;50.210;10.628;2024-03-23T09:34:48;7.10;98.20
8537;DHT22;4306;50.210;10.628;2024-03-23T09:37:15;7.10;98.00
8537;DHT22;4306;50.210;10.628;2024-03-23T09:39:41;7.30;97.60
8537;DHT22;4306;50.210;10.628;2024-03-23T09:42:08;7.20;97.00
8537;DHT22;4306;50.210;10.628;2024-03-23T09:44:35;7.40;97.00
8537;DHT22;4306;50.210;10.628;2024-03-23T09:47:03;7.30;95.50
8537;DHT22;4306;50.210;10.628;2024-03-23T09:49:29;7.20;95.20
8537;DHT22;4306;50.210;10.628;2024-03-23T09:51:59;7.20;93.90
8537;DHT22;4306;50.210;10.628;2024-03-23T09:54:25;7.30;93.60
8537;DHT22;4306;50.210;10.628;2024-03-23T09:56:53;7.30;93.10
8537;DHT22;4306;50.210;10.628;2024-03-23T09:59:19;7.40;93.60
8537;DHT22;4306;50.210;10.628;2024-03-23T10:01:47;7.70;94.00
8537;DHT22;4306;50.210;10.628;2024-03-23T10:04:36;7.80;92.80
8537;DHT22;4306;50.210;10.628;2024-03-23T10:07:15;7.70;91.80
8537;DHT22;4306;50.210;10.628;2024-03-23T10:09:45;7.70;92.50
8537;DHT22;4306;50.210;10.628;2024-03-23T10:12:13;8.00;92.50
8537;DHT22;4306;50.210;10.628;2024-03-23T10:14:41;8.10;92.50
8537;DHT22;4306;50.210;10.628;2024-03-23T10:17:12;8.40;92.40
8537;DHT22;4306;50.210;10.628;2024-03-23T10:19:39;8.20;91.50
8537;DHT22;4306;50.210;10.628;2024-03-23T10:22:08;7.90;91.30
8537;DHT22;4306;50.210;10.628;2024-03-23T10:24:36;7.70;91.40
8537;DHT22;4306;50.210;10.628;2024-03-23T10:27:03;7.60;92.00
8537;DHT22;4306;50.210;10.628;2024-03-23T10:29:29;7.40;92.20
8537;DHT22;4306;50.210;10.628;2024-03-23T10:32:08;7.20;92.40
8537;DHT22;4306;50.210;10.628;2024-03-23T10:34:35;7.30;92.60
8537;DHT22;4306;50.210;10.628;2024-03-23T10:37:03;7.60;92.80
8537;DHT22;4306;50.210;10.628;2024-03-23T10:39:32;7.70;92.90
8537;DHT22;4306;50.210;10.628;2024-03-23T10:42:03;8.00;92.50
8537;DHT22;4306;50.210;10.628;2024-03-23T10:44:31;8.20;91.80
8537;DHT22;4306;50.210;10.628;2024-03-23T10:46:58;8.10;92.40
8537;DHT22;4306;50.210;10.628;2024-03-23T10:49:26;8.40;91.10
8537;DHT22;4306;50.210;10.628;2024-03-23T10:51:56;8.60;91.70
8537;DHT22;4306;50.210;10.628;2024-03-23T10:54:24;8.60;90.50
8537;DHT22;4306;50.210;10.628;2024-03-23T10:56:55;8.20;90.90
8537;DHT22;4306;50.210;10.628;2024-03-23T10:59:25;8.30;91.10
8537;DHT22;4306;50.210;10.628;2024-03-23T11:01:56;8.50;90.60
8537;DHT22;4306;50.210;10.628;2024-03-23T11:04:32;8.20;91.20
8537;DHT22;4306;50.210;10.628;2024-03-23T11:07:02;8.20;91.60
8537;DHT22;4306;50.210;10.628;2024-03-23T11:09:41;8.10;92.30
8537;DHT22;4306;50.210;10.628;2024-03-23T11:12:29;7.70;92.80
8537;DHT22;4306;50.210;10.628;2024-03-23T11:15:02;7.50;93.40
8537;DHT22;4306;50.210;10.628;2024-03-23T11:17:30;7.70;94.70
8537;DHT22;4306;50.210;10.628;2024-03-23T11:19:58;7.80;94.50
8537;DHT22;4306;50.210;10.628;2024-03-23T11:22:44;7.90;94.60
8537;DHT22;4306;50.210;10.628;2024-03-23T11:25:22;7.70;94.40
8537;DHT22;4306;50.210;10.628;2024-03-23T11:27:50;7.90;94.30
8537;DHT22;4306;50.210;10.628;2024-03-23T11:30:20;8.40;93.00
8537;DHT22;4306;50.210;10.628;2024-03-23T11:32:48;8.80;90.30
8537;DHT22;4306;50.210;10.628;2024-03-23T11:35:25;9.00;90.40
8537;DHT22;4306;50.210;10.628;2024-03-23T11:38:06;9.00;87.70
8537;DHT22;4306;50.210;10.628;2024-03-23T11:40:35;9.20;88.40
8537;DHT22;4306;50.210;10.628;2024-03-23T11:43:03;8.80;86.90
8537;DHT22;4306;50.210;10.628;2024-03-23T11:45:36;8.50;87.80
8537;DHT22;4306;50.210;10.628;2024-03-23T11:48:04;8.00;89.40
8537;DHT22;4306;50.210;10.628;2024-03-23T11:50:32;8.10;90.10
8537;DHT22;4306;50.210;10.628;2024-03-23T11:53:13;8.20;90.40
8537;DHT22;4306;50.210;10.628;2024-03-23T11:55:48;8.20;90.50
8537;DHT22;4306;50.210;10.628;2024-03-23T11:58:16;7.70;90.90
8537;DHT22;4306;50.210;10.628;2024-03-23T12:00:51;7.80;91.30
8537;DHT22;4306;50.210;10.628;2024-03-23T12:03:18;7.70;91.10
8537;DHT22;4306;50.210;10.628;2024-03-23T12:05:49;7.70;90.80
8537;DHT22;4306;50.210;10.628;2024-03-23T12:08:20;7.70;90.90
8537;DHT22;4306;50.210;10.628;2024-03-23T12:10:50;7.90;90.10
8537;DHT22;4306;50.210;10.628;2024-03-23T12:13:19;8.20;90.80
8537;DHT22;4306;50.210;10.628;2024-03-23T12:15:48;8.20;87.70
8537;DHT22;4306;50.210;10.628;2024-03-23T12:18:16;8.20;89.40
8537;DHT22;4306;50.210;10.628;2024-03-23T12:20:44;8.50;86.40
8537;DHT22;4306;50.210;10.628;2024-03-23T12:23:13;8.90;86.10
8537;DHT22;4306;50.210;10.628;2024-03-23T12:25:49;8.60;83.40
8537;DHT22;4306;50.210;10.628;2024-03-23T12:28:16;8.60;85.40
8537;DHT22;4306;50.210;10.628;2024-03-23T12:30:42;8.50;85.00
8537;DHT22;4306;50.210;10.628;2024-03-23T12:33:11;8.30;87.00
8537;DHT22;4306;50.210;10.628;2024-03-23T12:35:37;8.20;88.40
8537;DHT22;4306;50.210;10.628;2024-03-23T12:38:04;8.10;88.70
8537;DHT22;4306;50.210;10.628;2024-03-23T12:40:30;8.00;87.80
8537;DHT22;4306;50.210;10.628;2024-03-23T12:42:57;8.00;85.50
8537;DHT22;4306;50.210;10.628;2024-03-23T12:45:23;8.00;87.00
8537;DHT22;4306;50.210;10.628;2024-03-23T12:47:50;8.00;87.90
8537;DHT22;4306;50.210;10.628;2024-03-23T12:50:19;8.00;88.40
8537;DHT22;4306;50.210;10.628;2024-03-23T12:52:47;8.30;89.50
8537;DHT22;4306;50.210;10.628;2024-03-23T12:55:13;8.30;89.00
8537;DHT22;4306;50.210;10.628;2024-03-23T12:57:40;8.60;87.60
8537;DHT22;4306;50.210;10.628;2024-03-23T13:00:07;8.80;88.30
8537;DHT22;4306;50.210;10.628;2024-03-23T13:02:37;8.90;84.10
8537;DHT22;4306;50.210;10.628;2024-03-23T13:05:05;8.50;84.30
8537;DHT22;4306;50.210;10.628;2024-03-23T13:07:35;8.70;84.00
8537;DHT22;4306;50.210;10.628;2024-03-23T13:10:03;8.50;85.20
8537;DHT22;4306;50.210;10.628;2024-03-23T13:12:30;8.60;85.30
8537;DHT22;4306;50.210;10.628;2024-03-23T13:14:56;8.60;86.50
8537;DHT22;4306;50.210;10.628;2024-03-23T13:17:24;8.30;89.00
8537;DHT22;4306;50.210;10.628;2024-03-23T13:19:52;8.00;91.10
8537;DHT22;4306;50.210;10.628;2024-03-23T13:22:19;7.70;91.90
8537;DHT22;4306;50.210;10.628;2024-03-23T13:24:46;7.70;92.90
8537;DHT22;4306;50.210;10.628;2024-03-23T13:27:14;7.60;93.80
8537;DHT22;4306;50.210;10.628;2024-03-23T13:29:40;7.70;93.20
8537;DHT22;4306;50.210;10.628;2024-03-23T13:32:07;7.70;92.80
8537;DHT22;4306;50.210;10.628;2024-03-23T13:34:34;7.70;92.30
8537;DHT22;4306;50.210;10.628;2024-03-23T13:37:01;7.50;91.30
8537;DHT22;4306;50.210;10.628;2024-03-23T13:39:27;7.30;92.50
8537;DHT22;4306;50.210;10.628;2024-03-23T13:41:56;7.40;92.90
8537;DHT22;4306;50.210;10.628;2024-03-23T13:44:22;7.80;92.70
8537;DHT22;4306;50.210;10.628;2024-03-23T13:46:49;8.00;92.30
8537;DHT22;4306;50.210;10.628;2024-03-23T13:49:25;8.20;92.00
8537;DHT22;4306;50.210;10.628;2024-03-23T13:51:53;8.20;92.20
8537;DHT22;4306;50.210;10.628;2024-03-23T13:54:20;8.20;92.00
8537;DHT22;4306;50.210;10.628;2024-03-23T13:56:48;8.10;92.30
8537;DHT22;4306;50.210;10.628;2024-03-23T13:59:16;8.40;92.60
8537;DHT22;4306;50.210;10.628;2024-03-23T14:01:43;8.40;92.00
8537;DHT22;4306;50.210;10.628;2024-03-23T14:04:11;8.50;91.70
8537;DHT22;4306;50.210;10.628;2024-03-23T14:06:38;8.70;91.20
8537;DHT22;4306;50.210;10.628;2024-03-23T14:09:05;8.80;90.60
8537;DHT22;4306;50.210;10.628;2024-03-23T14:11:34;9.00;90.00
8537;DHT22;4306;50.210;10.628;2024-03-23T14:14:00;9.20;89.00
8537;DHT22;4306;50.210;10.628;2024-03-23T14:16:30;9.30;88.10
8537;DHT22;4306;50.210;10.628;2024-03-23T14:18:56;9.30;87.50
8537;DHT22;4306;50.210;10.628;2024-03-23T14:21:23;9.40;87.10
8537;DHT22;4306;50.210;10.628;2024-03-23T14:23:49;9.40;86.20
8537;DHT22;4306;50.210;10.628;2024-03-23T14:26:17;9.40;84.70
8537;DHT22;4306;50.210;10.628;2024-03-23T14:28:43;9.50;86.90
8537;DHT22;4306;50.210;10.628;2024-03-23T14:31:10;9.50;84.60
8537;DHT22;4306;50.210;10.628;2024-03-23T14:33:37;9.50;86.60
8537;DHT22;4306;50.210;10.628;2024-03-23T14:36:07;9.60;87.90
8537;DHT22;4306;50.210;10.628;2024-03-23T14:38:33;9.70;87.70
8537;DHT22;4306;50.210;10.628;2024-03-23T14:41:01;9.90;86.60
8537;DHT22;4306;50.210;10.628;2024-03-23T14:43:28;10.00;86.20
8537;DHT22;4306;50.210;10.628;2024-03-23T14:46:06;10.00;85.20
8537;DHT22;4306;50.210;10.628;2024-03-23T14:48:34;10.00;85.40
8537;DHT22;4306;50.210;10.628;2024-03-23T14:51:03;9.80;84.90
8537;DHT22;4306;50.210;10.628;2024-03-23T14:53:31;9.90;85.40
8537;DHT22;4306;50.210;10.628;2024-03-23T14:55:59;9.80;82.90
8537;DHT22;4306;50.210;10.628;2024-03-23T14:58:26;9.20;82.50
8537;DHT22;4306;50.210;10.628;2024-03-23T15:00:53;8.90;83.50
8537;DHT22;4306;50.210;10.628;2024-03-23T15:03:23;9.20;84.50
8537;DHT22;4306;50.210;10.628;2024-03-23T15:05:54;9.10;82.50
8537;DHT22;4306;50.210;10.628;2024-03-23T15:08:22;9.40;83.30
8537;DHT22;4306;50.210;10.628;2024-03-23T15:10:50;9.50;83.00
8537;DHT22;4306;50.210;10.628;2024-03-23T15:13:16;9.40;83.80
8537;DHT22;4306;50.210;10.628;2024-03-23T15:15:44;9.60;83.90
8537;DHT22;4306;50.210;10.628;2024-03-23T15:18:11;9.30;80.30
8537;DHT22;4306;50.210;10.628;2024-03-23T15:20:40;9.00;81.00
8537;DHT22;4306;50.210;10.628;2024-03-23T15:23:07;9.10;81.20
8537;DHT22;4306;50.210;10.628;2024-03-23T15:25:36;8.90;82.10
8537;DHT22;4306;50.210;10.628;2024-03-23T15:28:02;8.50;86.60
8537;DHT22;4306;50.210;10.628;2024-03-23T15:30:29;6.30;93.90
8537;DHT22;4306;50.210;10.628;2024-03-23T15:32:55;5.00;97.20
8537;DHT22;4306;50.210;10.628;2024-03-23T15:35:22;4.40;99.50
8537;DHT22;4306;50.210;10.628;2024-03-23T15:37:49;3.90;99.90
8537;DHT22;4306;50.210;10.628;2024-03-23T15:40:18;3.60;99.90
8537;DHT22;4306;50.210;10.628;2024-03-23T15:42:46;3.60;99.90
8537;DHT22;4306;50.210;10.628;2024-03-23T15:45:13;3.40;99.90
8537;DHT22;4306;50.210;10.628;2024-03-23T15:47:40;3.30;99.90
8537;DHT22;4306;50.210;10.628;2024-03-23T15:50:08;3.10;99.90
8537;DHT22;4306;50.210;10.628;2024-03-23T15:52:35;3.10;99.90
8537;DHT22;4306;50.210;10.628;2024-03-23T15:55:03;3.00;99.90
8537;DHT22;4306;50.210;10.628;2024-03-23T15:57:33;3.10;99.90
8537;DHT22;4306;50.210;10.628;2024-03-23T16:00:03;3.00;99.90
8537;DHT22;4306;50.210;10.628;2024-03-23T16:02:30;3.50;99.90
8537;DHT22;4306;50.210;10.628;2024-03-23T16:04:57;3.60;99.90
8537;DHT22;4306;50.210;10.628;2024-03-23T16:07:23;3.80;99.90
8537;DHT22;4306;50.210;10.628;2024-03-23T16:09:51;3.90;99.90
8537;DHT22;4306;50.210;10.628;2024-03-23T16:12:17;3.80;99.90
8537;DHT22;4306;50.210;10.628;2024-03-23T16:14:44;3.80;99.90
8537;DHT22;4306;50.210;10.628;2024-03-23T16:17:11;4.20;99.90
8537;DHT22;4306;50.210;10.628;2024-03-23T16:19:38;4.10;99.90
8537;DHT22;4306;50.210;10.628;2024-03-23T16:22:04;4.20;99.90
8537;DHT22;4306;50.210;10.628;2024-03-23T16:24:31;4.40;99.90
8537;DHT22;4306;50.210;10.628;2024-03-23T16:26:57;4.30;99.90
8537;DHT22;4306;50.210;10.628;2024-03-23T16:29:24;4.20;99.90
8537;DHT22;4306;50.210;10.628;2024-03-23T16:31:50;4.30;99.90
8537;DHT22;4306;50.210;10.628;2024-03-23T16:34:18;4.30;99.90
8537;DHT22;4306;50.210;10.628;2024-03-23T16:36:44;4.10;99.90
8537;DHT22;4306;50.210;10.628;2024-03-23T16:39:11;4.00;99.90
8537;DHT22;4306;50.210;10.628;2024-03-23T16:41:37;4.30;99.90
8537;DHT22;4306;50.210;10.628;2024-03-23T16:44:04;4.40;99.90
8537;DHT22;4306;50.210;10.628;2024-03-23T16:46:30;4.50;99.90
8537;DHT22;4306;50.210;10.628;2024-03-23T16:48:57;4.60;99.90
8537;DHT22;4306;50.210;10.628;2024-03-23T16:51:25;4.70;99.90
8537;DHT22;4306;50.210;10.628;2024-03-23T16:53:52;4.70;99.90
8537;DHT22;4306;50.210;10.628;2024-03-23T16:56:21;4.60;99.90
8537;DHT22;4306;50.210;10.628;2024-03-23T16:58:48;4.60;99.90